createdAt,value
2022-12-25T00:00:48.178Z,0.00
2022-12-25T00:01:48.093Z,0.00
2022-12-25T00:02:48.129Z,0.00
2022-12-25T00:03:48.172Z,0.00
2022-12-25T00:04:48.068Z,0.00
2022-12-25T00:05:48.036Z,0.00
2022-12-25T00:06:48.087Z,0.00
2022-12-25T00:07:48.022Z,0.00
2022-12-25T00:08:48.011Z,0.00
2022-12-25T00:09:48.002Z,0.00
2022-12-25T00:10:47.997Z,0.00
2022-12-25T00:11:47.996Z,0.00
2022-12-25T00:12:47.975Z,0.00
2022-12-25T00:13:47.977Z,0.00
2022-12-25T00:14:47.973Z,0.00
2022-12-25T00:15:47.979Z,0.00
2022-12-25T00:16:48.062Z,0.00
2022-12-25T00:17:47.908Z,0.00
2022-12-25T00:18:47.920Z,0.00
2022-12-25T00:19:47.904Z,0.00
2022-12-25T00:20:47.904Z,0.00
2022-12-25T00:21:47.884Z,0.00
2022-12-25T00:22:47.899Z,0.00
2022-12-25T00:23:47.866Z,0.00
2022-12-25T00:24:47.872Z,0.00
2022-12-25T00:25:47.829Z,0.00
2022-12-25T00:26:47.826Z,0.00
2022-12-25T00:27:47.831Z,0.00
2022-12-25T00:28:47.826Z,0.00
2022-12-25T00:29:47.809Z,0.00
2022-12-25T00:30:47.793Z,0.00
2022-12-25T00:31:47.891Z,0.00
2022-12-25T00:32:47.780Z,0.00
2022-12-25T00:33:47.774Z,0.00
2022-12-25T00:34:47.780Z,0.00
2022-12-25T00:35:47.730Z,0.00
2022-12-25T00:36:47.749Z,0.00
2022-12-25T00:37:47.732Z,0.00
2022-12-25T00:38:47.773Z,0.00
2022-12-25T00:39:47.697Z,0.00
2022-12-25T00:40:47.689Z,0.00
2022-12-25T00:41:47.680Z,0.00
2022-12-25T00:42:47.685Z,0.00
2022-12-25T00:43:47.683Z,0.00
2022-12-25T00:44:47.679Z,0.00
2022-12-25T00:45:47.709Z,0.00
2022-12-25T00:46:47.704Z,0.00
2022-12-25T00:47:47.614Z,0.00
2022-12-25T00:48:47.634Z,0.00
2022-12-25T00:49:47.649Z,0.00
2022-12-25T00:50:47.599Z,0.00
2022-12-25T00:51:47.579Z,0.00
2022-12-25T00:52:47.599Z,0.00
2022-12-25T00:53:47.539Z,0.00
2022-12-25T00:54:47.575Z,0.00
2022-12-25T00:55:47.524Z,0.00
2022-12-25T00:56:47.538Z,0.00
2022-12-25T00:57:47.545Z,0.00
2022-12-25T00:58:47.499Z,0.00
2022-12-25T00:59:47.476Z,0.00
2022-12-25T01:00:47.537Z,0.00
2022-12-25T01:01:47.652Z,0.00
2022-12-25T01:02:47.589Z,0.00
2022-12-25T01:03:47.460Z,0.00
2022-12-25T01:04:47.452Z,0.00
2022-12-25T01:05:47.470Z,0.00
2022-12-25T01:06:47.434Z,0.00
2022-12-25T01:07:47.413Z,0.00
2022-12-25T01:08:47.415Z,0.00
2022-12-25T01:09:47.367Z,0.00
2022-12-25T01:10:47.426Z,0.00
2022-12-25T01:11:47.381Z,0.00
2022-12-25T01:12:47.360Z,0.00
2022-12-25T01:13:47.337Z,0.00
2022-12-25T01:14:47.357Z,0.00
2022-12-25T01:15:47.357Z,0.00
2022-12-25T01:16:47.446Z,0.00
2022-12-25T01:17:47.313Z,0.00
2022-12-25T01:18:47.315Z,0.00
2022-12-25T01:19:47.271Z,0.00
2022-12-25T01:20:47.283Z,0.00
2022-12-25T01:21:47.276Z,0.00
2022-12-25T01:22:47.267Z,0.00
2022-12-25T01:23:47.229Z,0.00
2022-12-25T01:24:47.238Z,0.00
2022-12-25T01:25:47.261Z,0.00
2022-12-25T01:26:47.242Z,0.00
2022-12-25T01:27:47.208Z,0.00
2022-12-25T01:28:47.233Z,0.00
2022-12-25T01:29:47.198Z,0.00
2022-12-25T01:30:47.167Z,0.00
2022-12-25T01:31:47.232Z,0.00
2022-12-25T01:32:47.164Z,0.00
2022-12-25T01:33:47.148Z,0.00
2022-12-25T01:34:50.606Z,0.00
2022-12-25T01:35:48.147Z,0.00
2022-12-25T01:36:47.156Z,0.00
2022-12-25T01:37:47.101Z,0.00
2022-12-25T01:38:47.106Z,0.00
2022-12-25T01:39:47.113Z,0.00
2022-12-25T01:40:47.076Z,0.00
2022-12-25T01:41:47.065Z,0.00
2022-12-25T01:42:47.094Z,0.00
2022-12-25T01:43:47.036Z,0.00
2022-12-25T01:44:47.047Z,0.00
2022-12-25T01:45:47.075Z,0.00
2022-12-25T01:46:47.024Z,0.00
2022-12-25T01:47:47.053Z,0.00
2022-12-25T01:48:46.989Z,0.00
2022-12-25T01:49:47.010Z,0.00
2022-12-25T01:50:47.002Z,0.00
2022-12-25T01:51:46.992Z,0.00
2022-12-25T01:52:46.943Z,0.00
2022-12-25T01:53:46.957Z,0.00
2022-12-25T01:54:46.933Z,0.00
2022-12-25T01:55:46.938Z,0.00
2022-12-25T01:56:46.893Z,0.00
2022-12-25T01:57:46.925Z,0.00
2022-12-25T01:58:47.066Z,0.00
2022-12-25T01:59:46.888Z,0.00
2022-12-25T02:00:46.881Z,0.00
2022-12-25T02:01:47.016Z,0.00
2022-12-25T02:02:46.921Z,0.00
2022-12-25T02:03:46.866Z,0.00
2022-12-25T02:04:46.832Z,0.00
2022-12-25T02:05:46.838Z,0.00
2022-12-25T02:06:46.816Z,0.00
2022-12-25T02:07:46.793Z,0.00
2022-12-25T02:08:46.818Z,0.00
2022-12-25T02:09:46.783Z,0.00
2022-12-25T02:10:46.767Z,0.00
2022-12-25T02:11:46.770Z,0.00
2022-12-25T02:12:46.723Z,0.00
2022-12-25T02:13:46.787Z,0.00
2022-12-25T02:14:46.717Z,0.00
2022-12-25T02:15:46.732Z,0.00
2022-12-25T02:16:58.347Z,0.00
2022-12-25T02:17:47.724Z,0.00
2022-12-25T02:18:46.672Z,0.00
2022-12-25T02:19:46.732Z,0.00
2022-12-25T02:20:46.666Z,0.00
2022-12-25T02:21:46.662Z,0.00
2022-12-25T02:22:46.655Z,0.00
2022-12-25T02:23:46.643Z,0.00
2022-12-25T02:24:46.635Z,0.00
2022-12-25T02:25:46.628Z,0.00
2022-12-25T02:26:46.600Z,0.00
2022-12-25T02:27:46.602Z,0.00
2022-12-25T02:28:46.594Z,0.00
2022-12-25T02:29:46.577Z,0.00
2022-12-25T02:30:46.559Z,0.00
2022-12-25T02:31:46.647Z,0.00
2022-12-25T02:32:46.522Z,0.00
2022-12-25T02:33:46.524Z,0.00
2022-12-25T02:34:46.508Z,0.00
2022-12-25T02:35:46.531Z,0.00
2022-12-25T02:36:46.499Z,0.00
2022-12-25T02:37:46.522Z,0.00
2022-12-25T02:38:46.489Z,0.00
2022-12-25T02:39:46.500Z,0.00
2022-12-25T02:40:46.624Z,0.00
2022-12-25T02:41:46.458Z,0.00
2022-12-25T02:42:46.459Z,0.00
2022-12-25T02:43:46.440Z,0.00
2022-12-25T02:44:46.414Z,0.00
2022-12-25T02:45:46.540Z,0.00
2022-12-25T02:46:46.416Z,0.00
2022-12-25T02:47:46.390Z,0.00
2022-12-25T02:48:46.371Z,0.00
2022-12-25T02:49:46.377Z,0.00
2022-12-25T02:50:46.375Z,0.00
2022-12-25T02:51:46.407Z,0.00
2022-12-25T02:52:46.347Z,0.00
2022-12-25T02:53:46.355Z,0.00
2022-12-25T02:54:46.312Z,0.00
2022-12-25T02:55:46.313Z,0.00
2022-12-25T02:56:46.307Z,0.00
2022-12-25T02:57:46.299Z,0.00
2022-12-25T02:58:46.508Z,0.00
2022-12-25T02:59:46.288Z,0.00
2022-12-25T03:00:46.248Z,0.00
2022-12-25T03:01:46.367Z,0.00
2022-12-25T03:02:46.241Z,0.00
2022-12-25T03:03:46.269Z,0.00
2022-12-25T03:04:46.244Z,0.00
2022-12-25T03:05:46.218Z,0.00
2022-12-25T03:06:46.189Z,0.00
2022-12-25T03:07:46.209Z,0.00
2022-12-25T03:08:46.192Z,0.00
2022-12-25T03:09:46.185Z,0.00
2022-12-25T03:10:46.181Z,0.00
2022-12-25T03:11:46.171Z,0.00
2022-12-25T03:12:46.154Z,0.00
2022-12-25T03:13:46.128Z,0.00
2022-12-25T03:14:46.107Z,0.00
2022-12-25T03:15:46.120Z,0.00
2022-12-25T03:16:46.337Z,0.00
2022-12-25T03:17:46.125Z,0.00
2022-12-25T03:18:46.058Z,0.00
2022-12-25T03:19:46.068Z,0.00
2022-12-25T03:20:46.063Z,0.00
2022-12-25T03:21:46.042Z,0.00
2022-12-25T03:22:46.040Z,0.00
2022-12-25T03:23:46.013Z,0.00
2022-12-25T03:24:46.017Z,0.00
2022-12-25T03:25:46.009Z,0.00
2022-12-25T03:26:45.994Z,0.00
2022-12-25T03:27:45.974Z,0.00
2022-12-25T03:28:45.984Z,0.00
2022-12-25T03:29:46.037Z,0.00
2022-12-25T03:30:45.970Z,0.00
2022-12-25T03:31:45.931Z,0.00
2022-12-25T03:32:45.938Z,0.00
2022-12-25T03:33:46.165Z,0.00
2022-12-25T03:34:45.891Z,0.00
2022-12-25T03:35:45.919Z,0.00
2022-12-25T03:36:45.877Z,0.00
2022-12-25T03:37:45.878Z,0.00
2022-12-25T03:38:45.862Z,0.00
2022-12-25T03:39:45.891Z,0.00
2022-12-25T03:40:45.848Z,0.00
2022-12-25T03:41:45.854Z,0.00
2022-12-25T03:42:45.831Z,0.00
2022-12-25T03:43:45.844Z,0.00
2022-12-25T03:44:45.807Z,0.00
2022-12-25T03:45:45.839Z,0.00
2022-12-25T03:46:45.782Z,0.00
2022-12-25T03:47:45.792Z,0.00
2022-12-25T03:48:45.763Z,0.00
2022-12-25T03:49:45.797Z,0.00
2022-12-25T03:50:45.752Z,0.00
2022-12-25T03:51:45.763Z,0.00
2022-12-25T03:52:45.725Z,0.00
2022-12-25T03:53:45.723Z,0.00
2022-12-25T03:54:45.701Z,0.00
2022-12-25T03:55:45.726Z,0.00
2022-12-25T03:56:45.684Z,0.00
2022-12-25T03:57:45.694Z,0.00
2022-12-25T03:58:45.672Z,0.00
2022-12-25T03:59:45.684Z,0.00
2022-12-25T04:00:45.683Z,0.00
2022-12-25T04:01:45.785Z,0.00
2022-12-25T04:02:45.709Z,0.00
2022-12-25T04:03:45.701Z,0.00
2022-12-25T04:04:45.620Z,0.00
2022-12-25T04:05:45.617Z,0.00
2022-12-25T04:06:45.576Z,0.00
2022-12-25T04:07:45.597Z,0.00
2022-12-25T04:08:45.571Z,0.00
2022-12-25T04:09:45.577Z,0.00
2022-12-25T04:10:45.575Z,0.00
2022-12-25T04:11:45.554Z,0.00
2022-12-25T04:12:45.560Z,0.00
2022-12-25T04:13:45.539Z,0.00
2022-12-25T04:14:45.527Z,0.00
2022-12-25T04:15:45.623Z,0.00
2022-12-25T04:16:45.523Z,0.00
2022-12-25T04:17:45.499Z,0.00
2022-12-25T04:18:45.462Z,0.00
2022-12-25T04:19:45.449Z,0.00
2022-12-25T04:20:45.498Z,0.00
2022-12-25T04:21:45.467Z,0.00
2022-12-25T04:22:45.435Z,0.00
2022-12-25T04:23:45.417Z,0.00
2022-12-25T04:24:45.409Z,0.00
2022-12-25T04:25:45.398Z,0.00
2022-12-25T04:26:45.428Z,0.00
2022-12-25T04:27:45.391Z,0.00
2022-12-25T04:28:45.352Z,0.00
2022-12-25T04:29:45.350Z,0.00
2022-12-25T04:30:45.423Z,0.00
2022-12-25T04:31:45.329Z,0.00
2022-12-25T04:32:45.350Z,0.00
2022-12-25T04:33:45.330Z,0.00
2022-12-25T04:34:45.295Z,0.00
2022-12-25T04:35:45.269Z,0.00
2022-12-25T04:36:45.280Z,0.00
2022-12-25T04:37:45.317Z,0.00
2022-12-25T04:38:45.266Z,0.00
2022-12-25T04:39:45.247Z,0.00
2022-12-25T04:40:45.246Z,0.00
2022-12-25T04:41:45.224Z,0.00
2022-12-25T04:42:45.234Z,0.00
2022-12-25T04:43:45.243Z,0.00
2022-12-25T04:44:45.180Z,0.00
2022-12-25T04:45:45.201Z,0.00
2022-12-25T04:46:45.235Z,0.00
2022-12-25T04:47:45.165Z,0.00
2022-12-25T04:48:45.199Z,0.00
2022-12-25T04:49:45.159Z,0.00
2022-12-25T04:50:45.128Z,0.00
2022-12-25T04:51:45.149Z,0.00
2022-12-25T04:52:45.102Z,0.00
2022-12-25T04:53:45.228Z,0.00
2022-12-25T04:54:45.091Z,0.00
2022-12-25T04:55:45.087Z,0.00
2022-12-25T04:56:45.964Z,0.00
2022-12-25T04:57:45.139Z,0.00
2022-12-25T04:58:45.049Z,0.00
2022-12-25T04:59:45.064Z,0.00
2022-12-25T05:00:45.075Z,0.00
2022-12-25T05:01:45.116Z,0.00
2022-12-25T05:02:45.172Z,0.00
2022-12-25T05:03:45.025Z,0.00
2022-12-25T05:04:45.029Z,0.00
2022-12-25T05:05:45.007Z,0.00
2022-12-25T05:06:44.960Z,0.00
2022-12-25T05:07:44.988Z,0.00
2022-12-25T05:08:44.922Z,0.00
2022-12-25T05:09:44.966Z,0.00
2022-12-25T05:10:44.946Z,0.00
2022-12-25T05:11:44.941Z,0.00
2022-12-25T05:12:44.911Z,0.00
2022-12-25T05:13:44.906Z,0.00
2022-12-25T05:14:44.897Z,0.00
2022-12-25T05:15:44.923Z,0.00
2022-12-25T05:16:44.881Z,0.00
2022-12-25T05:17:44.857Z,0.00
2022-12-25T05:18:44.834Z,0.00
2022-12-25T05:19:44.869Z,0.00
2022-12-25T05:20:44.835Z,0.00
2022-12-25T05:21:44.841Z,0.00
2022-12-25T05:22:44.806Z,0.00
2022-12-25T05:23:44.801Z,0.00
2022-12-25T05:24:44.791Z,0.00
2022-12-25T05:25:44.776Z,0.00
2022-12-25T05:26:44.749Z,0.00
2022-12-25T05:27:48.829Z,0.00
2022-12-25T05:28:45.725Z,0.00
2022-12-25T05:29:44.731Z,0.00
2022-12-25T05:30:44.724Z,0.00
2022-12-25T05:31:44.803Z,0.00
2022-12-25T05:32:44.751Z,0.00
2022-12-25T05:33:44.704Z,0.00
2022-12-25T05:34:44.693Z,0.00
2022-12-25T05:35:44.673Z,0.00
2022-12-25T05:36:44.715Z,0.00
2022-12-25T05:37:44.662Z,0.00
2022-12-25T05:38:44.656Z,0.00
2022-12-25T05:39:44.655Z,0.00
2022-12-25T05:40:44.651Z,0.00
2022-12-25T05:41:44.636Z,0.00
2022-12-25T05:42:44.647Z,0.00
2022-12-25T05:43:44.605Z,0.00
2022-12-25T05:44:44.649Z,0.00
2022-12-25T05:45:44.571Z,0.00
2022-12-25T05:46:44.600Z,0.00
2022-12-25T05:47:44.563Z,0.00
2022-12-25T05:48:44.560Z,0.00
2022-12-25T05:49:44.536Z,0.00
2022-12-25T05:50:44.512Z,0.00
2022-12-25T05:51:44.519Z,0.00
2022-12-25T05:52:44.512Z,0.00
2022-12-25T05:53:44.499Z,0.00
2022-12-25T05:54:44.499Z,0.00
2022-12-25T05:55:44.447Z,0.00
2022-12-25T05:56:44.478Z,0.00
2022-12-25T05:57:44.464Z,0.00
2022-12-25T05:58:44.458Z,0.00
2022-12-25T05:59:44.455Z,0.00
2022-12-25T06:00:44.427Z,0.00
2022-12-25T06:01:44.476Z,0.00
2022-12-25T06:02:44.516Z,0.00
2022-12-25T06:03:44.489Z,0.00
2022-12-25T06:04:44.411Z,0.00
2022-12-25T06:05:44.362Z,0.00
2022-12-25T06:06:44.364Z,0.00
2022-12-25T06:07:44.351Z,0.00
2022-12-25T06:08:44.345Z,0.00
2022-12-25T06:09:44.351Z,0.00
2022-12-25T06:10:44.315Z,0.00
2022-12-25T06:11:44.301Z,0.00
2022-12-25T06:12:44.293Z,0.00
2022-12-25T06:13:44.292Z,0.00
2022-12-25T06:14:44.309Z,0.00
2022-12-25T06:15:44.286Z,0.00
2022-12-25T06:16:44.352Z,0.00
2022-12-25T06:17:44.233Z,0.00
2022-12-25T06:18:44.232Z,0.00
2022-12-25T06:19:44.234Z,0.00
2022-12-25T06:20:44.223Z,0.00
2022-12-25T06:21:44.201Z,0.00
2022-12-25T06:22:44.230Z,0.00
2022-12-25T06:23:44.284Z,0.00
2022-12-25T06:24:44.198Z,0.00
2022-12-25T06:25:44.176Z,0.00
2022-12-25T06:26:44.158Z,0.00
2022-12-25T06:27:44.150Z,0.00
2022-12-25T06:28:44.206Z,0.00
2022-12-25T06:29:44.125Z,0.00
2022-12-25T06:30:44.261Z,0.00
2022-12-25T06:31:44.274Z,0.00
2022-12-25T06:32:44.110Z,0.00
2022-12-25T06:33:44.091Z,0.00
2022-12-25T06:34:44.118Z,0.00
2022-12-25T06:35:44.097Z,0.00
2022-12-25T06:36:44.056Z,0.00
2022-12-25T06:37:44.034Z,0.00
2022-12-25T06:38:44.043Z,0.00
2022-12-25T06:39:44.025Z,0.00
2022-12-25T06:40:44.059Z,0.00
2022-12-25T06:41:44.041Z,0.00
2022-12-25T06:42:43.983Z,0.00
2022-12-25T06:43:43.984Z,0.00
2022-12-25T06:44:43.983Z,0.00
2022-12-25T06:45:43.984Z,0.00
2022-12-25T06:46:44.011Z,0.00
2022-12-25T06:47:43.940Z,0.00
2022-12-25T06:48:43.948Z,4.00
2022-12-25T06:49:43.914Z,4.00
2022-12-25T06:50:43.931Z,0.00
2022-12-25T06:51:43.911Z,4.00
2022-12-25T06:52:43.898Z,4.00
2022-12-25T06:53:43.896Z,4.00
2022-12-25T06:54:43.885Z,0.00
2022-12-25T06:55:43.853Z,4.00
2022-12-25T06:56:43.863Z,4.00
2022-12-25T06:57:43.849Z,4.00
2022-12-25T06:58:43.832Z,8.00
2022-12-25T06:59:43.793Z,4.00
2022-12-25T07:00:43.849Z,4.00
2022-12-25T07:01:44.032Z,12.00
2022-12-25T07:02:43.936Z,12.00
2022-12-25T07:03:43.786Z,12.00
2022-12-25T07:04:43.783Z,16.00
2022-12-25T07:05:43.735Z,20.00
2022-12-25T07:06:43.801Z,20.00
2022-12-25T07:07:43.742Z,24.00
2022-12-25T07:08:43.735Z,28.00
2022-12-25T07:09:43.713Z,28.00
2022-12-25T07:10:43.746Z,28.00
2022-12-25T07:11:43.708Z,32.00
2022-12-25T07:12:43.724Z,32.00
2022-12-25T07:13:43.680Z,32.00
2022-12-25T07:14:43.674Z,36.00
2022-12-25T07:15:43.641Z,40.00
2022-12-25T07:16:43.762Z,44.00
2022-12-25T07:17:43.639Z,52.00
2022-12-25T07:18:43.635Z,56.00
2022-12-25T07:19:45.486Z,64.00
2022-12-25T07:20:43.646Z,72.00
2022-12-25T07:21:43.600Z,80.00
2022-12-25T07:22:43.610Z,92.00
2022-12-25T07:23:43.571Z,100.00
2022-12-25T07:24:43.587Z,108.00
2022-12-25T07:25:43.541Z,116.00
2022-12-25T07:26:43.575Z,116.00
2022-12-25T07:27:43.571Z,120.00
2022-12-25T07:28:43.518Z,120.00
2022-12-25T07:29:43.516Z,132.00
2022-12-25T07:30:43.519Z,136.00
2022-12-25T07:31:43.565Z,132.00
2022-12-25T07:32:49.834Z,128.00
2022-12-25T07:33:44.463Z,124.00
2022-12-25T07:34:43.463Z,120.00
2022-12-25T07:35:43.445Z,128.00
2022-12-25T07:36:43.464Z,132.00
2022-12-25T07:37:43.453Z,156.00
2022-12-25T07:38:43.497Z,176.00
2022-12-25T07:39:43.407Z,188.00
2022-12-25T07:40:43.403Z,180.00
2022-12-25T07:41:43.379Z,172.00
2022-12-25T07:42:43.393Z,180.00
2022-12-25T07:43:43.381Z,224.00
2022-12-25T07:44:43.398Z,256.00
2022-12-25T07:45:43.411Z,276.00
2022-12-25T07:46:43.343Z,292.00
2022-12-25T07:47:43.313Z,292.00
2022-12-25T07:48:43.369Z,304.00
2022-12-25T07:49:43.290Z,312.00
2022-12-25T07:50:43.332Z,292.00
2022-12-25T07:51:43.309Z,272.00
2022-12-25T07:52:43.923Z,264.00
2022-12-25T07:53:43.286Z,280.00
2022-12-25T07:54:43.267Z,312.00
2022-12-25T07:55:43.270Z,332.00
2022-12-25T07:56:43.232Z,336.00
2022-12-25T07:57:43.191Z,348.00
2022-12-25T07:58:43.233Z,396.00
2022-12-25T07:59:43.222Z,476.00
2022-12-25T08:00:43.246Z,580.00
2022-12-25T08:01:43.358Z,740.00
2022-12-25T08:02:43.291Z,884.00
2022-12-25T08:03:43.249Z,928.00
2022-12-25T08:04:43.206Z,976.00
2022-12-25T08:05:43.131Z,1020.00
2022-12-25T08:06:43.140Z,1064.00
2022-12-25T08:07:43.130Z,1048.00
2022-12-25T08:08:43.129Z,1044.00
2022-12-25T08:09:43.123Z,1036.00
2022-12-25T08:10:43.087Z,1008.00
2022-12-25T08:11:43.080Z,1000.00
2022-12-25T08:12:43.077Z,1028.00
2022-12-25T08:13:43.092Z,1044.00
2022-12-25T08:14:43.096Z,996.00
2022-12-25T08:15:43.045Z,980.00
2022-12-25T08:16:43.123Z,948.00
2022-12-25T08:17:43.021Z,952.00
2022-12-25T08:18:43.031Z,980.00
2022-12-25T08:19:43.057Z,976.00
2022-12-25T08:20:43.025Z,984.00
2022-12-25T08:21:42.980Z,1068.00
2022-12-25T08:22:42.975Z,1112.00
2022-12-25T08:23:42.962Z,1036.00
2022-12-25T08:24:42.961Z,1068.00
2022-12-25T08:25:42.966Z,1040.00
2022-12-25T08:26:42.935Z,960.00
2022-12-25T08:27:42.909Z,1044.00
2022-12-25T08:28:42.929Z,800.00
2022-12-25T08:29:42.869Z,724.00
2022-12-25T08:30:43.011Z,740.00
2022-12-25T08:31:46.467Z,768.00
2022-12-25T08:32:42.891Z,852.00
2022-12-25T08:33:42.850Z,1200.00
2022-12-25T08:34:42.874Z,1392.00
2022-12-25T08:35:42.846Z,1296.00
2022-12-25T08:36:42.843Z,1272.00
2022-12-25T08:37:42.850Z,1384.00
2022-12-25T08:38:42.819Z,1416.00
2022-12-25T08:39:42.791Z,1188.00
2022-12-25T08:40:42.793Z,1208.00
2022-12-25T08:41:42.829Z,1308.00
2022-12-25T08:42:42.786Z,1400.00
2022-12-25T08:43:42.767Z,1388.00
2022-12-25T08:44:42.749Z,1432.00
2022-12-25T08:45:42.773Z,1552.00
2022-12-25T08:46:42.842Z,1664.00
2022-12-25T08:47:42.716Z,1828.00
2022-12-25T08:48:42.706Z,1812.00
2022-12-25T08:49:42.697Z,1816.00
2022-12-25T08:50:42.715Z,1696.00
2022-12-25T08:51:42.665Z,1632.00
2022-12-25T08:52:42.666Z,1564.00
2022-12-25T08:53:42.659Z,1456.00
2022-12-25T08:54:42.647Z,1356.00
2022-12-25T08:55:42.621Z,1396.00
2022-12-25T08:56:42.649Z,1584.00
2022-12-25T08:57:42.650Z,1620.00
2022-12-25T08:58:42.609Z,1544.00
2022-12-25T08:59:42.587Z,1524.00
2022-12-25T09:00:42.579Z,1480.00
2022-12-25T09:01:42.689Z,1484.00
2022-12-25T09:02:42.688Z,1392.00
2022-12-25T09:03:42.622Z,1264.00
2022-12-25T09:04:42.538Z,1136.00
2022-12-25T09:05:42.527Z,1036.00
2022-12-25T09:06:42.531Z,972.00
2022-12-25T09:07:42.498Z,1028.00
2022-12-25T09:08:48.077Z,1160.00
2022-12-25T09:09:43.501Z,1284.00
2022-12-25T09:10:42.480Z,1504.00
2022-12-25T09:11:42.471Z,1420.00
2022-12-25T09:12:42.519Z,1360.00
2022-12-25T09:13:42.465Z,1176.00
2022-12-25T09:14:42.535Z,980.00
2022-12-25T09:15:42.450Z,1196.00
2022-12-25T09:16:42.460Z,1208.00
2022-12-25T09:17:42.405Z,1288.00
2022-12-25T09:18:42.407Z,1052.00
2022-12-25T09:19:42.393Z,780.00
2022-12-25T09:20:42.400Z,728.00
2022-12-25T09:21:42.359Z,752.00
2022-12-25T09:22:42.365Z,872.00
2022-12-25T09:23:42.401Z,1220.00
2022-12-25T09:24:42.395Z,1616.00
2022-12-25T09:25:42.343Z,1740.00
2022-12-25T09:26:42.309Z,1596.00
2022-12-25T09:27:42.317Z,1332.00
2022-12-25T09:28:48.417Z,1200.00
2022-12-25T09:29:43.306Z,1192.00
2022-12-25T09:30:42.301Z,1228.00
2022-12-25T09:31:42.256Z,1236.00
2022-12-25T09:32:42.266Z,1168.00
2022-12-25T09:33:42.234Z,1168.00
2022-12-25T09:34:42.246Z,1252.00
2022-12-25T09:35:42.233Z,1348.00
2022-12-25T09:36:42.237Z,1376.00
2022-12-25T09:37:42.204Z,1348.00
2022-12-25T09:38:42.216Z,1308.00
2022-12-25T09:39:46.260Z,1156.00
2022-12-25T09:40:42.206Z,912.00
2022-12-25T09:41:42.237Z,736.00
2022-12-25T09:42:42.156Z,696.00
2022-12-25T09:43:42.145Z,692.00
2022-12-25T09:44:42.156Z,708.00
2022-12-25T09:45:42.099Z,672.00
2022-12-25T09:46:42.243Z,644.00
2022-12-25T09:47:42.108Z,640.00
2022-12-25T09:48:42.083Z,672.00
2022-12-25T09:49:42.497Z,672.00
2022-12-25T09:50:42.065Z,744.00
2022-12-25T09:51:42.081Z,880.00
2022-12-25T09:52:42.079Z,1024.00
2022-12-25T09:53:42.012Z,1060.00
2022-12-25T09:54:42.002Z,924.00
2022-12-25T09:55:42.005Z,816.00
2022-12-25T09:56:42.048Z,828.00
2022-12-25T09:57:42.005Z,896.00
2022-12-25T09:58:41.980Z,872.00
2022-12-25T09:59:41.964Z,740.00
2022-12-25T10:00:41.954Z,596.00
2022-12-25T10:01:42.016Z,528.00
2022-12-25T10:02:42.124Z,596.00
2022-12-25T10:03:42.013Z,752.00
2022-12-25T10:04:41.901Z,888.00
2022-12-25T10:05:41.917Z,816.00
2022-12-25T10:06:41.891Z,692.00
2022-12-25T10:07:41.926Z,588.00
2022-12-25T10:08:41.881Z,588.00
2022-12-25T10:09:41.890Z,716.00
2022-12-25T10:10:41.861Z,776.00
2022-12-25T10:11:41.898Z,724.00
2022-12-25T10:12:41.840Z,708.00
2022-12-25T10:13:41.888Z,792.00
2022-12-25T10:14:41.810Z,852.00
2022-12-25T10:15:45.379Z,884.00
2022-12-25T10:16:41.859Z,968.00
2022-12-25T10:17:41.788Z,1128.00
2022-12-25T10:18:41.863Z,1184.00
2022-12-25T10:19:41.764Z,1236.00
2022-12-25T10:20:41.749Z,1272.00
2022-12-25T10:21:41.765Z,1364.00
2022-12-25T10:22:41.731Z,1432.00
2022-12-25T10:23:41.751Z,1384.00
2022-12-25T10:24:41.747Z,1388.00
2022-12-25T10:25:41.703Z,1520.00
2022-12-25T10:26:41.690Z,1844.00
2022-12-25T10:27:41.721Z,1916.00
2022-12-25T10:28:41.736Z,1892.00
2022-12-25T10:29:41.699Z,2044.00
2022-12-25T10:30:41.687Z,1876.00
2022-12-25T10:31:41.757Z,1736.00
2022-12-25T10:32:41.650Z,1844.00
2022-12-25T10:33:41.612Z,2292.00
2022-12-25T10:34:41.625Z,2368.00
2022-12-25T10:35:41.604Z,2220.00
2022-12-25T10:36:41.591Z,2168.00
2022-12-25T10:37:41.583Z,2348.00
2022-12-25T10:38:41.585Z,2512.00
2022-12-25T10:39:46.270Z,2720.00
2022-12-25T10:40:42.589Z,2832.00
2022-12-25T10:41:41.571Z,3072.00
2022-12-25T10:42:41.529Z,3344.00
2022-12-25T10:43:41.523Z,3428.00
2022-12-25T10:44:41.532Z,3252.00
2022-12-25T10:45:41.537Z,3124.00
2022-12-25T10:46:41.513Z,3340.00
2022-12-25T10:47:42.142Z,4020.00
2022-12-25T10:48:41.452Z,4520.00
2022-12-25T10:49:41.550Z,4468.00
2022-12-25T10:50:41.447Z,4068.00
2022-12-25T10:51:41.493Z,3472.00
2022-12-25T10:52:41.438Z,3172.00
2022-12-25T10:53:41.419Z,3244.00
2022-12-25T10:54:41.419Z,3532.00
2022-12-25T10:55:41.419Z,3192.00
2022-12-25T10:56:41.380Z,2956.00
2022-12-25T10:57:41.392Z,2912.00
2022-12-25T10:58:41.362Z,2428.00
2022-12-25T10:59:41.363Z,2016.00
2022-12-25T11:00:41.373Z,1768.00
2022-12-25T11:01:41.383Z,1868.00
2022-12-25T11:02:41.635Z,2140.00
2022-12-25T11:03:41.397Z,2264.00
2022-12-25T11:04:41.293Z,2204.00
2022-12-25T11:05:41.398Z,2140.00
2022-12-25T11:06:41.271Z,1988.00
2022-12-25T11:07:41.291Z,2476.00
2022-12-25T11:08:41.254Z,2804.00
2022-12-25T11:09:41.292Z,2400.00
2022-12-25T11:10:41.288Z,1668.00
2022-12-25T11:11:41.249Z,1616.00
2022-12-25T11:12:41.223Z,1900.00
2022-12-25T11:13:41.241Z,2136.00
2022-12-25T11:14:41.205Z,2436.00
2022-12-25T11:15:41.268Z,2380.00
2022-12-25T11:16:41.293Z,2192.00
2022-12-25T11:17:41.186Z,1972.00
2022-12-25T11:18:41.160Z,2144.00
2022-12-25T11:19:41.195Z,2176.00
2022-12-25T11:20:45.432Z,2156.00
2022-12-25T11:21:42.135Z,2084.00
2022-12-25T11:22:41.117Z,2328.00
2022-12-25T11:23:41.115Z,2524.00
2022-12-25T11:24:41.105Z,2792.00
2022-12-25T11:25:41.120Z,2304.00
2022-12-25T11:26:41.036Z,1660.00
2022-12-25T11:27:41.091Z,1324.00
2022-12-25T11:28:41.059Z,1136.00
2022-12-25T11:29:41.056Z,1024.00
2022-12-25T11:30:41.025Z,960.00
2022-12-25T11:31:41.182Z,1000.00
2022-12-25T11:32:41.031Z,1080.00
2022-12-25T11:33:41.023Z,1004.00
2022-12-25T11:34:40.993Z,904.00
2022-12-25T11:35:41.039Z,848.00
2022-12-25T11:36:41.006Z,836.00
2022-12-25T11:37:40.980Z,840.00
2022-12-25T11:38:40.976Z,896.00
2022-12-25T11:39:41.013Z,944.00
2022-12-25T11:40:40.926Z,1032.00
2022-12-25T11:41:40.961Z,1100.00
2022-12-25T11:42:40.905Z,1108.00
2022-12-25T11:43:40.904Z,1044.00
2022-12-25T11:44:40.910Z,976.00
2022-12-25T11:45:40.887Z,1000.00
2022-12-25T11:46:41.030Z,1048.00
2022-12-25T11:47:40.861Z,1148.00
2022-12-25T11:48:40.855Z,1252.00
2022-12-25T11:49:44.684Z,1324.00
2022-12-25T11:50:41.826Z,1376.00
2022-12-25T11:51:40.867Z,1332.00
2022-12-25T11:52:40.820Z,1280.00
2022-12-25T11:53:40.830Z,1348.00
2022-12-25T11:54:40.802Z,1312.00
2022-12-25T11:55:40.784Z,1280.00
2022-12-25T11:56:40.816Z,1336.00
2022-12-25T11:57:40.766Z,1324.00
2022-12-25T11:58:40.737Z,1264.00
2022-12-25T11:59:40.765Z,1276.00
2022-12-25T12:00:40.780Z,1320.00
2022-12-25T12:01:40.810Z,1404.00
2022-12-25T12:02:40.922Z,1464.00
2022-12-25T12:03:40.754Z,1604.00
2022-12-25T12:04:43.189Z,1724.00
2022-12-25T12:05:40.701Z,1628.00
2022-12-25T12:06:40.657Z,1472.00
2022-12-25T12:07:40.672Z,1388.00
2022-12-25T12:08:40.673Z,1344.00
2022-12-25T12:09:40.657Z,1288.00
2022-12-25T12:10:40.611Z,1332.00
2022-12-25T12:11:40.609Z,1504.00
2022-12-25T12:12:46.632Z,1744.00
2022-12-25T12:13:41.604Z,1940.00
2022-12-25T12:14:40.582Z,1996.00
2022-12-25T12:15:40.611Z,2000.00
2022-12-25T12:16:40.622Z,1988.00
2022-12-25T12:17:40.564Z,1900.00
2022-12-25T12:18:45.160Z,1824.00
2022-12-25T12:19:41.545Z,1776.00
2022-12-25T12:20:40.567Z,1764.00
2022-12-25T12:21:40.521Z,1760.00
2022-12-25T12:22:40.496Z,1748.00
2022-12-25T12:23:40.516Z,1840.00
2022-12-25T12:24:40.469Z,1968.00
2022-12-25T12:25:40.491Z,2108.00
2022-12-25T12:26:40.468Z,2212.00
2022-12-25T12:27:40.489Z,2252.00
2022-12-25T12:28:40.454Z,2196.00
2022-12-25T12:29:40.462Z,2152.00
2022-12-25T12:30:40.413Z,2152.00
2022-12-25T12:31:40.458Z,2040.00
2022-12-25T12:32:40.397Z,2084.00
2022-12-25T12:33:40.429Z,2180.00
2022-12-25T12:34:40.395Z,2120.00
2022-12-25T12:35:40.393Z,2072.00
2022-12-25T12:36:40.403Z,2212.00
2022-12-25T12:37:40.362Z,2308.00
2022-12-25T12:38:40.319Z,2472.00
2022-12-25T12:39:40.362Z,2500.00
2022-12-25T12:40:40.333Z,2300.00
2022-12-25T12:41:40.340Z,2140.00
2022-12-25T12:42:40.398Z,2128.00
2022-12-25T12:43:40.323Z,2196.00
2022-12-25T12:44:40.310Z,2172.00
2022-12-25T12:45:40.298Z,2116.00
2022-12-25T12:46:40.306Z,2228.00
2022-12-25T12:47:40.247Z,2368.00
2022-12-25T12:48:40.263Z,2440.00